sensor_id;sensor_type;location;lat;lon;timestamp;pressure;altitude;pressure_sealevel;temperature;humidity
37634;BME280;32048;49.902;22.508;2023-01-27T00:00:38;98931.56;;;-1.66;100.00
37634;BME280;32048;49.902;22.508;2023-01-27T00:03:20;98931.56;;;-1.66;100.00
37634;BME280;32048;49.902;22.508;2023-01-27T00:05:48;98933.31;;;-1.68;100.00
37634;BME280;32048;49.902;22.508;2023-01-27T00:08:16;98930.72;;;-1.68;100.00
37634;BME280;32048;49.902;22.508;2023-01-27T00:10:43;98929.84;;;-1.72;100.00
37634;BME280;32048;49.902;22.508;2023-01-27T00:13:12;98923.78;;;-1.69;100.00
37634;BME280;32048;49.902;22.508;2023-01-27T00:15:55;98920.34;;;-1.70;100.00
37634;BME280;32048;49.902;22.508;2023-01-27T00:18:22;98921.22;;;-1.68;100.00
37634;BME280;32048;49.902;22.508;2023-01-27T00:20:49;98924.66;;;-1.67;100.00
37634;BME280;32048;49.902;22.508;2023-01-27T00:23:35;98922.94;;;-1.67;100.00
37634;BME280;32048;49.902;22.508;2023-01-27T00:26:21;98919.50;;;-1.70;100.00
37634;BME280;32048;49.902;22.508;2023-01-27T00:28:49;98928.97;;;-1.72;100.00
37634;BME280;32048;49.902;22.508;2023-01-27T00:31:16;98925.53;;;-1.71;100.00
37634;BME280;32048;49.902;22.508;2023-01-27T00:34:03;98928.13;;;-1.70;100.00
37634;BME280;32048;49.902;22.508;2023-01-27T00:36:38;98923.78;;;-1.69;100.00
37634;BME280;32048;49.902;22.508;2023-01-27T00:39:06;98924.69;;;-1.75;100.00
37634;BME280;32048;49.902;22.508;2023-01-27T00:41:34;98921.22;;;-1.74;100.00
37634;BME280;32048;49.902;22.508;2023-01-27T00:44:01;98922.94;;;-1.74;100.00
37634;BME280;32048;49.902;22.508;2023-01-27T00:46:28;98918.63;;;-1.74;100.00
37634;BME280;32048;49.902;22.508;2023-01-27T00:48:55;98922.06;;;-1.73;100.00
37634;BME280;32048;49.902;22.508;2023-01-27T00:51:22;98927.25;;;-1.72;100.00
37634;BME280;32048;49.902;22.508;2023-01-27T00:53:50;98923.78;;;-1.71;100.00
37634;BME280;32048;49.902;22.508;2023-01-27T00:56:17;98919.50;;;-1.70;100.00
37634;BME280;32048;49.902;22.508;2023-01-27T00:58:44;98919.50;;;-1.70;100.00
37634;BME280;32048;49.902;22.508;2023-01-27T01:01:13;98916.03;;;-1.69;100.00
37634;BME280;32048;49.902;22.508;2023-01-27T01:03:42;98916.91;;;-1.70;100.00
37634;BME280;32048;49.902;22.508;2023-01-27T01:06:11;98918.59;;;-1.71;100.00
37634;BME280;32048;49.902;22.508;2023-01-27T01:08:39;98925.53;;;-1.70;100.00
37634;BME280;32048;49.902;22.508;2023-01-27T01:11:07;98922.06;;;-1.69;100.00
37634;BME280;32048;49.902;22.508;2023-01-27T01:13:35;98913.44;;;-1.69;100.00
37634;BME280;32048;49.902;22.508;2023-01-27T01:16:11;98915.16;;;-1.71;100.00
37634;BME280;32048;49.902;22.508;2023-01-27T01:18:38;98906.56;;;-1.70;100.00
37634;BME280;32048;49.902;22.508;2023-01-27T01:21:06;98907.41;;;-1.70;100.00
37634;BME280;32048;49.902;22.508;2023-01-27T01:23:37;98908.25;;;-1.71;100.00
37634;BME280;32048;49.902;22.508;2023-01-27T01:26:04;98909.13;;;-1.73;100.00
37634;BME280;32048;49.902;22.508;2023-01-27T01:28:32;98908.25;;;-1.75;100.00
37634;BME280;32048;49.902;22.508;2023-01-27T01:31:25;98912.59;;;-1.80;100.00
37634;BME280;32048;49.902;22.508;2023-01-27T01:33:52;98911.72;;;-1.81;100.00
37634;BME280;32048;49.902;22.508;2023-01-27T01:36:20;98908.28;;;-1.81;100.00
37634;BME280;32048;49.902;22.508;2023-01-27T01:38:47;98904.81;;;-1.83;100.00
37634;BME280;32048;49.902;22.508;2023-01-27T01:41:18;98905.69;;;-1.83;100.00
37634;BME280;32048;49.902;22.508;2023-01-27T01:43:46;98904.81;;;-1.85;100.00
37634;BME280;32048;49.902;22.508;2023-01-27T01:46:14;98907.38;;;-1.86;100.00
37634;BME280;32048;49.902;22.508;2023-01-27T01:51:27;98904.81;;;-1.88;100.00
37634;BME280;32048;49.902;22.508;2023-01-27T01:54:09;98910.00;;;-1.90;100.00
37634;BME280;32048;49.902;22.508;2023-01-27T01:56:42;98897.06;;;-1.90;100.00
37634;BME280;32048;49.902;22.508;2023-01-27T01:59:17;98899.63;;;-1.90;100.00
37634;BME280;32048;49.902;22.508;2023-01-27T02:01:45;98903.94;;;-1.89;100.00
37634;BME280;32048;49.902;22.508;2023-01-27T02:04:17;98912.59;;;-1.88;100.00
37634;BME280;32048;49.902;22.508;2023-01-27T02:06:52;98898.75;;;-1.89;100.00
37634;BME280;32048;49.902;22.508;2023-01-27T02:09:22;98909.13;;;-1.89;100.00
37634;BME280;32048;49.902;22.508;2023-01-27T02:11:49;98897.91;;;-1.89;100.00
37634;BME280;32048;49.902;22.508;2023-01-27T02:14:17;98897.91;;;-1.89;100.00
37634;BME280;32048;49.902;22.508;2023-01-27T02:16:45;98891.88;;;-1.86;100.00
37634;BME280;32048;49.902;22.508;2023-01-27T02:22:20;98898.78;;;-1.85;100.00
37634;BME280;32048;49.902;22.508;2023-01-27T02:24:57;98909.13;;;-1.85;100.00
37634;BME280;32048;49.902;22.508;2023-01-27T02:27:25;98908.28;;;-1.83;100.00
37634;BME280;32048;49.902;22.508;2023-01-27T02:29:53;98903.94;;;-1.82;100.00
37634;BME280;32048;49.902;22.508;2023-01-27T02:32:25;98898.78;;;-1.81;100.00
37634;BME280;32048;49.902;22.508;2023-01-27T02:34:54;98891.88;;;-1.82;100.00
37634;BME280;32048;49.902;22.508;2023-01-27T02:37:23;98902.22;;;-1.80;100.00
37634;BME280;32048;49.902;22.508;2023-01-27T02:39:50;98909.16;;;-1.79;100.00
37634;BME280;32048;49.902;22.508;2023-01-27T02:42:19;98900.50;;;-1.77;100.00
37634;BME280;32048;49.902;22.508;2023-01-27T02:44:46;98899.63;;;-1.77;100.00
37634;BME280;32048;49.902;22.508;2023-01-27T02:47:13;98904.81;;;-1.74;100.00
37634;BME280;32048;49.902;22.508;2023-01-27T02:49:40;98894.44;;;-1.71;100.00
37634;BME280;32048;49.902;22.508;2023-01-27T02:52:07;98897.06;;;-1.70;100.00
37634;BME280;32048;49.902;22.508;2023-01-27T02:54:34;98898.78;;;-1.67;100.00
37634;BME280;32048;49.902;22.508;2023-01-27T02:57:01;98898.75;;;-1.64;100.00
37634;BME280;32048;49.902;22.508;2023-01-27T02:59:29;98902.22;;;-1.63;100.00
37634;BME280;32048;49.902;22.508;2023-01-27T03:01:55;98901.38;;;-1.61;100.00
37634;BME280;32048;49.902;22.508;2023-01-27T03:04:23;98900.50;;;-1.58;100.00
37634;BME280;32048;49.902;22.508;2023-01-27T03:06:50;98895.34;;;-1.61;100.00
37634;BME280;32048;49.902;22.508;2023-01-27T03:09:17;98896.16;;;-1.58;100.00
37634;BME280;32048;49.902;22.508;2023-01-27T03:11:44;98897.88;;;-1.55;100.00
37634;BME280;32048;49.902;22.508;2023-01-27T03:14:30;98906.53;;;-1.58;100.00
37634;BME280;32048;49.902;22.508;2023-01-27T03:17:15;98910.84;;;-1.55;100.00
37634;BME280;32048;49.902;22.508;2023-01-27T03:20:01;98912.59;;;-1.54;100.00
37634;BME280;32048;49.902;22.508;2023-01-27T03:22:28;98916.03;;;-1.52;100.00
37634;BME280;32048;49.902;22.508;2023-01-27T03:24:56;98915.16;;;-1.53;100.00
37634;BME280;32048;49.902;22.508;2023-01-27T03:27:23;98914.28;;;-1.49;100.00
37634;BME280;32048;49.902;22.508;2023-01-27T03:29:50;98915.16;;;-1.51;100.00
37634;BME280;32048;49.902;22.508;2023-01-27T03:32:25;98915.16;;;-1.51;100.00
37634;BME280;32048;49.902;22.508;2023-01-27T03:34:53;98909.97;;;-1.50;100.00
37634;BME280;32048;49.902;22.508;2023-01-27T03:37:24;98914.28;;;-1.47;100.00
37634;BME280;32048;49.902;22.508;2023-01-27T03:40:11;98909.97;;;-1.51;100.00
37634;BME280;32048;49.902;22.508;2023-01-27T03:42:57;98911.69;;;-1.49;100.00
37634;BME280;32048;49.902;22.508;2023-01-27T03:45:50;98900.47;;;-1.51;100.00
37634;BME280;32048;49.902;22.508;2023-01-27T03:48:36;98909.97;;;-1.47;100.00
37634;BME280;32048;49.902;22.508;2023-01-27T03:51:06;98903.94;;;-1.45;100.00
37634;BME280;32048;49.902;22.508;2023-01-27T03:53:34;98897.88;;;-1.43;100.00
37634;BME280;32048;49.902;22.508;2023-01-27T03:56:03;98894.41;;;-1.42;100.00
37634;BME280;32048;49.902;22.508;2023-01-27T03:58:34;98893.56;;;-1.42;100.00
37634;BME280;32048;49.902;22.508;2023-01-27T04:01:20;98891.84;;;-1.45;100.00
37634;BME280;32048;49.902;22.508;2023-01-27T04:03:48;98883.19;;;-1.44;100.00
37634;BME280;32048;49.902;22.508;2023-01-27T04:06:37;98881.50;;;-1.43;100.00
37634;BME280;32048;49.902;22.508;2023-01-27T04:11:56;98878.88;;;-1.40;100.00
37634;BME280;32048;49.902;22.508;2023-01-27T04:17:03;98891.81;;;-1.36;100.00
37634;BME280;32048;49.902;22.508;2023-01-27T04:19:30;98893.56;;;-1.36;100.00
37634;BME280;32048;49.902;22.508;2023-01-27T04:21:59;98891.81;;;-1.36;100.00
37634;BME280;32048;49.902;22.508;2023-01-27T04:24:27;98888.38;;;-1.38;100.00
37634;BME280;32048;49.902;22.508;2023-01-27T04:27:00;98891.84;;;-1.40;100.00
37634;BME280;32048;49.902;22.508;2023-01-27T04:29:30;98889.25;;;-1.39;100.00
37634;BME280;32048;49.902;22.508;2023-01-27T04:31:58;98889.25;;;-1.39;100.00
37634;BME280;32048;49.902;22.508;2023-01-27T04:34:26;98890.97;;;-1.38;100.00
37634;BME280;32048;49.902;22.508;2023-01-27T04:36:54;98887.50;;;-1.37;100.00
37634;BME280;32048;49.902;22.508;2023-01-27T04:39:22;98885.78;;;-1.39;100.00
37634;BME280;32048;49.902;22.508;2023-01-27T04:41:49;98883.19;;;-1.39;100.00
37634;BME280;32048;49.902;22.508;2023-01-27T04:44:17;98882.31;;;-1.41;100.00
37634;BME280;32048;49.902;22.508;2023-01-27T04:46:49;98884.91;;;-1.40;100.00
37634;BME280;32048;49.902;22.508;2023-01-27T04:49:17;98881.47;;;-1.42;100.00
37634;BME280;32048;49.902;22.508;2023-01-27T04:51:44;98882.31;;;-1.41;100.00
37634;BME280;32048;49.902;22.508;2023-01-27T04:54:13;98888.41;;;-1.45;100.00
37634;BME280;32048;49.902;22.508;2023-01-27T04:56:48;98885.81;;;-1.45;100.00
37634;BME280;32048;49.902;22.508;2023-01-27T04:59:19;98891.84;;;-1.48;100.00
37634;BME280;32048;49.902;22.508;2023-01-27T05:01:46;98884.94;;;-1.46;100.00
37634;BME280;32048;49.902;22.508;2023-01-27T05:04:13;98883.22;;;-1.47;100.00
37634;BME280;32048;49.902;22.508;2023-01-27T05:06:40;98897.00;;;-1.48;100.00
37634;BME280;32048;49.902;22.508;2023-01-27T05:09:07;98888.38;;;-1.49;100.00
37634;BME280;32048;49.902;22.508;2023-01-27T05:11:34;98888.38;;;-1.49;100.00
37634;BME280;32048;49.902;22.508;2023-01-27T05:14:01;98890.13;;;-1.49;100.00
37634;BME280;32048;49.902;22.508;2023-01-27T05:16:28;98897.88;;;-1.49;100.00
37634;BME280;32048;49.902;22.508;2023-01-27T05:18:55;98889.25;;;-1.48;100.00
37634;BME280;32048;49.902;22.508;2023-01-27T05:21:24;98891.84;;;-1.50;100.00
37634;BME280;32048;49.902;22.508;2023-01-27T05:23:53;98894.44;;;-1.51;100.00
37634;BME280;32048;49.902;22.508;2023-01-27T05:26:26;98891.84;;;-1.53;100.00
37634;BME280;32048;49.902;22.508;2023-01-27T05:28:56;98897.03;;;-1.50;100.00
37634;BME280;32048;49.902;22.508;2023-01-27T05:31:26;98897.88;;;-1.49;100.00
37634;BME280;32048;49.902;22.508;2023-01-27T05:33:54;98895.31;;;-1.49;100.00
37634;BME280;32048;49.902;22.508;2023-01-27T05:36:23;98895.31;;;-1.54;100.00
37634;BME280;32048;49.902;22.508;2023-01-27T05:38:50;98901.34;;;-1.53;100.00
37634;BME280;32048;49.902;22.508;2023-01-27T05:41:18;98900.50;;;-1.52;100.00
37634;BME280;32048;49.902;22.508;2023-01-27T05:43:50;98898.75;;;-1.53;100.00
37634;BME280;32048;49.902;22.508;2023-01-27T05:46:19;98894.44;;;-1.51;100.00
37634;BME280;32048;49.902;22.508;2023-01-27T05:48:49;98894.44;;;-1.53;100.00
37634;BME280;32048;49.902;22.508;2023-01-27T05:51:18;98900.50;;;-1.52;100.00
37634;BME280;32048;49.902;22.508;2023-01-27T05:53:46;98898.75;;;-1.53;100.00
37634;BME280;32048;49.902;22.508;2023-01-27T05:56:15;98895.28;;;-1.51;100.00
37634;BME280;32048;49.902;22.508;2023-01-27T05:58:43;98897.91;;;-1.48;100.00
37634;BME280;32048;49.902;22.508;2023-01-27T06:01:19;98904.78;;;-1.48;100.00
37634;BME280;32048;49.902;22.508;2023-01-27T06:03:47;98903.94;;;-1.49;100.00
37634;BME280;32048;49.902;22.508;2023-01-27T06:06:18;98904.78;;;-1.47;100.00
37634;BME280;32048;49.902;22.508;2023-01-27T06:08:46;98899.59;;;-1.48;100.00
37634;BME280;32048;49.902;22.508;2023-01-27T06:11:15;98913.44;;;-1.48;100.00
37634;BME280;32048;49.902;22.508;2023-01-27T06:13:42;98913.41;;;-1.46;100.00
37634;BME280;32048;49.902;22.508;2023-01-27T06:16:12;98915.16;;;-1.47;100.00
37634;BME280;32048;49.902;22.508;2023-01-27T06:18:39;98909.97;;;-1.51;100.00
37634;BME280;32048;49.902;22.508;2023-01-27T06:21:08;98911.72;;;-1.50;100.00
37634;BME280;32048;49.902;22.508;2023-01-27T06:23:36;98925.50;;;-1.53;100.00
37634;BME280;32048;49.902;22.508;2023-01-27T06:26:10;98927.25;;;-1.53;100.00
37634;BME280;32048;49.902;22.508;2023-01-27T06:28:38;98921.22;;;-1.58;100.00
37634;BME280;32048;49.902;22.508;2023-01-27T06:31:21;98928.97;;;-1.55;100.00
37634;BME280;32048;49.902;22.508;2023-01-27T06:33:49;98935.03;;;-1.50;100.00
37634;BME280;32048;49.902;22.508;2023-01-27T06:36:19;98935.00;;;-1.49;100.00
37634;BME280;32048;49.902;22.508;2023-01-27T06:38:47;98928.97;;;-1.49;100.00
37634;BME280;32048;49.902;22.508;2023-01-27T06:41:14;98931.53;;;-1.46;100.00
37634;BME280;32048;49.902;22.508;2023-01-27T06:43:41;98938.47;;;-1.50;100.00
37634;BME280;32048;49.902;22.508;2023-01-27T06:46:09;98935.88;;;-1.47;100.00
37634;BME280;32048;49.902;22.508;2023-01-27T06:48:36;98930.69;;;-1.48;100.00
37634;BME280;32048;49.902;22.508;2023-01-27T06:51:06;98929.81;;;-1.49;100.00
37634;BME280;32048;49.902;22.508;2023-01-27T06:53:33;98942.78;;;-1.52;100.00
37634;BME280;32048;49.902;22.508;2023-01-27T06:56:04;98943.63;;;-1.47;100.00
37634;BME280;32048;49.902;22.508;2023-01-27T06:58:31;98931.53;;;-1.41;100.00
37634;BME280;32048;49.902;22.508;2023-01-27T07:00:59;98936.72;;;-1.38;100.00
37634;BME280;32048;49.902;22.508;2023-01-27T07:03:26;98930.69;;;-1.34;100.00
37634;BME280;32048;49.902;22.508;2023-01-27T07:05:53;98938.44;;;-1.31;100.00
37634;BME280;32048;49.902;22.508;2023-01-27T07:08:20;98941.03;;;-1.30;100.00
37634;BME280;32048;49.902;22.508;2023-01-27T07:10:47;98941.88;;;-1.26;100.00
37634;BME280;32048;49.902;22.508;2023-01-27T07:13:14;98940.16;;;-1.16;100.00
37634;BME280;32048;49.902;22.508;2023-01-27T07:15:42;98950.53;;;-1.16;100.00
37634;BME280;32048;49.902;22.508;2023-01-27T07:18:11;98946.19;;;-1.19;100.00
37634;BME280;32048;49.902;22.508;2023-01-27T07:20:40;98947.03;;;-1.17;100.00
37634;BME280;32048;49.902;22.508;2023-01-27T07:23:08;98942.75;;;-1.19;100.00
37634;BME280;32048;49.902;22.508;2023-01-27T07:25:35;98944.44;;;-1.12;100.00
37634;BME280;32048;49.902;22.508;2023-01-27T07:28:02;98946.19;;;-1.13;100.00
37634;BME280;32048;49.902;22.508;2023-01-27T07:30:30;98950.47;;;-1.06;100.00
37634;BME280;32048;49.902;22.508;2023-01-27T07:33:04;98956.50;;;-0.99;100.00
37634;BME280;32048;49.902;22.508;2023-01-27T07:35:31;98954.75;;;-0.92;100.00
37634;BME280;32048;49.902;22.508;2023-01-27T07:37:58;98950.47;;;-0.87;100.00
37634;BME280;32048;49.902;22.508;2023-01-27T07:40:26;98951.28;;;-0.82;100.00
37634;BME280;32048;49.902;22.508;2023-01-27T07:42:53;98951.25;;;-0.74;100.00
37634;BME280;32048;49.902;22.508;2023-01-27T07:45:23;98949.50;;;-0.68;100.00
37634;BME280;32048;49.902;22.508;2023-01-27T07:47:50;98939.97;;;-0.61;100.00
37634;BME280;32048;49.902;22.508;2023-01-27T07:50:19;98941.69;;;-0.57;100.00
37634;BME280;32048;49.902;22.508;2023-01-27T07:52:47;98946.00;;;-0.53;100.00
37634;BME280;32048;49.902;22.508;2023-01-27T07:55:14;98952.03;;;-0.48;100.00
37634;BME280;32048;49.902;22.508;2023-01-27T07:57:41;98959.81;;;-0.46;100.00
37634;BME280;32048;49.902;22.508;2023-01-27T08:00:09;98952.88;;;-0.44;100.00
37634;BME280;32048;49.902;22.508;2023-01-27T08:02:36;98962.34;;;-0.38;100.00
37634;BME280;32048;49.902;22.508;2023-01-27T08:05:03;98965.81;;;-0.33;100.00
37634;BME280;32048;49.902;22.508;2023-01-27T08:07:30;98964.94;;;-0.31;100.00
37634;BME280;32048;49.902;22.508;2023-01-27T08:09:57;98966.66;;;-0.33;100.00
37634;BME280;32048;49.902;22.508;2023-01-27T08:12:24;98964.03;;;-0.30;100.00
37634;BME280;32048;49.902;22.508;2023-01-27T08:14:52;98957.97;;;-0.26;100.00
37634;BME280;32048;49.902;22.508;2023-01-27T08:17:19;98957.94;;;-0.21;100.00
37634;BME280;32048;49.902;22.508;2023-01-27T08:19:46;98950.16;;;-0.18;100.00
37634;BME280;32048;49.902;22.508;2023-01-27T08:22:16;98964.00;;;-0.17;100.00
37634;BME280;32048;49.902;22.508;2023-01-27T08:24:47;98963.97;;;-0.16;100.00
37634;BME280;32048;49.902;22.508;2023-01-27T08:27:16;98963.13;;;-0.15;100.00
37634;BME280;32048;49.902;22.508;2023-01-27T08:29:43;98963.97;;;-0.13;100.00
37634;BME280;32048;49.902;22.508;2023-01-27T08:32:11;98961.38;;;-0.13;100.00
37634;BME280;32048;49.902;22.508;2023-01-27T08:34:41;98963.09;;;-0.10;100.00
37634;BME280;32048;49.902;22.508;2023-01-27T08:37:08;98963.06;;;-0.07;100.00
37634;BME280;32048;49.902;22.508;2023-01-27T08:39:35;98969.06;;;0.01;100.00
37634;BME280;32048;49.902;22.508;2023-01-27T08:42:02;98975.13;;;0.05;100.00
37634;BME280;32048;49.902;22.508;2023-01-27T08:44:29;98974.25;;;0.07;100.00
37634;BME280;32048;49.902;22.508;2023-01-27T08:46:56;98979.44;;;0.07;100.00
37634;BME280;32048;49.902;22.508;2023-01-27T08:49:23;98974.25;;;0.07;100.00
37634;BME280;32048;49.902;22.508;2023-01-27T08:51:50;98969.88;;;0.11;100.00
37634;BME280;32048;49.902;22.508;2023-01-27T08:54:18;98978.50;;;0.13;100.00
37634;BME280;32048;49.902;22.508;2023-01-27T08:56:44;98980.22;;;0.17;100.00
37634;BME280;32048;49.902;22.508;2023-01-27T08:59:12;98989.72;;;0.18;100.00
37634;BME280;32048;49.902;22.508;2023-01-27T09:01:38;98987.13;;;0.18;100.00
37634;BME280;32048;49.902;22.508;2023-01-27T09:04:08;98992.31;;;0.19;100.00
37634;BME280;32048;49.902;22.508;2023-01-27T09:06:36;98990.63;;;0.18;100.00
37634;BME280;32048;49.902;22.508;2023-01-27T09:09:03;98991.47;;;0.20;100.00
37634;BME280;32048;49.902;22.508;2023-01-27T09:11:40;98996.63;;;0.25;100.00
37634;BME280;32048;49.902;22.508;2023-01-27T09:14:08;98992.25;;;0.29;100.00
37634;BME280;32048;49.902;22.508;2023-01-27T09:16:36;98995.75;;;0.28;100.00
37634;BME280;32048;49.902;22.508;2023-01-27T09:19:03;99000.09;;;0.27;100.00
37634;BME280;32048;49.902;22.508;2023-01-27T09:21:30;98992.25;;;0.29;100.00
37634;BME280;32048;49.902;22.508;2023-01-27T09:23:58;98985.28;;;0.35;100.00
37634;BME280;32048;49.902;22.508;2023-01-27T09:26:25;98981.78;;;0.41;100.00
37634;BME280;32048;49.902;22.508;2023-01-27T09:28:52;98980.00;;;0.46;100.00
37634;BME280;32048;49.902;22.508;2023-01-27T09:31:19;98984.34;;;0.47;100.00
37634;BME280;32048;49.902;22.508;2023-01-27T09:33:46;98980.78;;;0.56;100.00
37634;BME280;32048;49.902;22.508;2023-01-27T09:36:17;98979.91;;;0.60;100.00
37634;BME280;32048;49.902;22.508;2023-01-27T09:38:55;98975.50;;;0.70;100.00
37634;BME280;32048;49.902;22.508;2023-01-27T09:41:58;98976.28;;;0.79;100.00
37634;BME280;32048;49.902;22.508;2023-01-27T09:44:51;98975.34;;;0.88;100.00
37634;BME280;32048;49.902;22.508;2023-01-27T09:59:06;98959.16;;;1.42;100.00
37634;BME280;32048;49.902;22.508;2023-01-27T10:09:34;98947.78;;;1.51;100.00
37634;BME280;32048;49.902;22.508;2023-01-27T10:12:29;98946.03;;;1.53;100.00
37634;BME280;32048;49.902;22.508;2023-01-27T10:15:22;98952.00;;;1.59;100.00
37634;BME280;32048;49.902;22.508;2023-01-27T10:20:46;98952.94;;;1.54;100.00
37634;BME280;32048;49.902;22.508;2023-01-27T10:31:35;98951.34;;;1.40;100.00
37634;BME280;32048;49.902;22.508;2023-01-27T10:34:21;98950.50;;;1.41;100.00
37634;BME280;32048;49.902;22.508;2023-01-27T10:39:37;98947.00;;;1.41;100.00
37634;BME280;32048;49.902;22.508;2023-01-27T10:50:14;98956.31;;;1.62;100.00
37634;BME280;32048;49.902;22.508;2023-01-27T10:52:59;98954.56;;;1.64;100.00
37634;BME280;32048;49.902;22.508;2023-01-27T10:58:38;98952.50;;;1.87;100.00
37634;BME280;32048;49.902;22.508;2023-01-27T11:01:11;98948.91;;;1.95;100.00
37634;BME280;32048;49.902;22.508;2023-01-27T11:03:56;98950.59;;;2.00;100.00
37634;BME280;32048;49.902;22.508;2023-01-27T11:06:28;98952.41;;;1.95;98.12
37634;BME280;32048;49.902;22.508;2023-01-27T11:11:34;98946.13;;;2.08;99.63
37634;BME280;32048;49.902;22.508;2023-01-27T11:16:39;98954.66;;;2.18;97.86
37634;BME280;32048;49.902;22.508;2023-01-27T11:19:25;98950.28;;;2.20;98.46
37634;BME280;32048;49.902;22.508;2023-01-27T11:21:56;98943.28;;;2.24;98.29
37634;BME280;32048;49.902;22.508;2023-01-27T11:24:42;98937.19;;;2.25;97.63
37634;BME280;32048;49.902;22.508;2023-01-27T11:27:50;98942.44;;;2.22;95.51
37634;BME280;32048;49.902;22.508;2023-01-27T11:30:25;98945.03;;;2.22;96.35
37634;BME280;32048;49.902;22.508;2023-01-27T11:35:23;98922.47;;;2.22;96.86
37634;BME280;32048;49.902;22.508;2023-01-27T11:37:51;98928.53;;;2.23;97.31
37634;BME280;32048;49.902;22.508;2023-01-27T11:40:35;98925.94;;;2.21;97.15
37634;BME280;32048;49.902;22.508;2023-01-27T11:43:04;98912.91;;;2.24;96.83
37634;BME280;32048;49.902;22.508;2023-01-27T11:45:34;98919.72;;;2.32;96.02
37634;BME280;32048;49.902;22.508;2023-01-27T11:48:05;98929.97;;;2.42;97.09
37634;BME280;32048;49.902;22.508;2023-01-27T11:50:34;98933.28;;;2.54;95.36
37634;BME280;32048;49.902;22.508;2023-01-27T11:53:24;98939.34;;;2.53;92.83
37634;BME280;32048;49.902;22.508;2023-01-27T11:56:01;98930.75;;;2.47;93.72
37634;BME280;32048;49.902;22.508;2023-01-27T11:58:44;98932.53;;;2.45;94.41
37634;BME280;32048;49.902;22.508;2023-01-27T12:01:21;98922.09;;;2.45;94.33
37634;BME280;32048;49.902;22.508;2023-01-27T12:04:00;98915.91;;;2.51;94.16
37634;BME280;32048;49.902;22.508;2023-01-27T12:06:35;98924.44;;;2.61;94.28
37634;BME280;32048;49.902;22.508;2023-01-27T12:09:04;98925.09;;;2.74;92.91
37634;BME280;32048;49.902;22.508;2023-01-27T12:11:31;98919.84;;;2.75;93.12
37634;BME280;32048;49.902;22.508;2023-01-27T12:14:01;98923.22;;;2.80;93.20
37634;BME280;32048;49.902;22.508;2023-01-27T12:16:49;98929.34;;;2.79;92.70
37634;BME280;32048;49.902;22.508;2023-01-27T12:19:26;98928.56;;;2.74;92.35
37634;BME280;32048;49.902;22.508;2023-01-27T12:22:00;98926.13;;;2.63;92.70
37634;BME280;32048;49.902;22.508;2023-01-27T12:24:35;98928.00;;;2.57;93.90
37634;BME280;32048;49.902;22.508;2023-01-27T12:27:04;98922.03;;;2.50;93.59
37634;BME280;32048;49.902;22.508;2023-01-27T12:29:39;98923.00;;;2.43;93.83
37634;BME280;32048;49.902;22.508;2023-01-27T12:32:21;98912.66;;;2.38;93.54
37634;BME280;32048;49.902;22.508;2023-01-27T12:34:51;98918.88;;;2.31;93.58
37634;BME280;32048;49.902;22.508;2023-01-27T12:37:27;98918.22;;;2.17;93.28
37634;BME280;32048;49.902;22.508;2023-01-27T12:40:00;98914.97;;;2.01;93.42
37634;BME280;32048;49.902;22.508;2023-01-27T12:42:33;98922.09;;;1.90;94.38
37634;BME280;32048;49.902;22.508;2023-01-27T12:45:28;98921.44;;;1.74;95.05
37634;BME280;32048;49.902;22.508;2023-01-27T12:50:31;98915.50;;;1.64;96.13
37634;BME280;32048;49.902;22.508;2023-01-27T12:53:18;98923.47;;;1.53;96.74
37634;BME280;32048;49.902;22.508;2023-01-27T12:56:03;98914.94;;;1.42;97.72
37634;BME280;32048;49.902;22.508;2023-01-27T12:58:38;98929.81;;;1.29;98.11
37634;BME280;32048;49.902;22.508;2023-01-27T13:01:35;98921.28;;;1.16;98.90
37634;BME280;32048;49.902;22.508;2023-01-27T13:04:07;98923.09;;;1.10;99.60
37634;BME280;32048;49.902;22.508;2023-01-27T13:09:23;98923.25;;;0.97;100.00
37634;BME280;32048;49.902;22.508;2023-01-27T13:11:54;98929.34;;;0.95;99.94
37634;BME280;32048;49.902;22.508;2023-01-27T13:14:22;98922.44;;;0.92;100.00
37634;BME280;32048;49.902;22.508;2023-01-27T13:16:55;98923.34;;;0.88;100.00
37634;BME280;32048;49.902;22.508;2023-01-27T13:21:58;98925.94;;;0.87;100.00
37634;BME280;32048;49.902;22.508;2023-01-27T13:24:38;98920.78;;;0.83;100.00
37634;BME280;32048;49.902;22.508;2023-01-27T13:27:15;98917.34;;;0.80;100.00
37634;BME280;32048;49.902;22.508;2023-01-27T13:29:53;98910.44;;;0.77;100.00
37634;BME280;32048;49.902;22.508;2023-01-27T13:32:26;98914.84;;;0.71;100.00
37634;BME280;32048;49.902;22.508;2023-01-27T13:35:12;98920.03;;;0.69;100.00
37634;BME280;32048;49.902;22.508;2023-01-27T13:37:48;98917.50;;;0.66;100.00
37634;BME280;32048;49.902;22.508;2023-01-27T13:40:22;98908.84;;;0.62;100.00
37634;BME280;32048;49.902;22.508;2023-01-27T13:43:01;98917.50;;;0.65;100.00
37634;BME280;32048;49.902;22.508;2023-01-27T13:48:21;98905.44;;;0.59;100.00
37634;BME280;32048;49.902;22.508;2023-01-27T13:53:24;98913.19;;;0.60;100.00
37634;BME280;32048;49.902;22.508;2023-01-27T14:08:16;98928.06;;;0.46;100.00
37634;BME280;32048;49.902;22.508;2023-01-27T14:16:27;98927.28;;;0.35;100.00
37634;BME280;32048;49.902;22.508;2023-01-27T14:21:47;98928.22;;;0.28;100.00
37634;BME280;32048;49.902;22.508;2023-01-27T14:25:12;98939.53;;;0.20;100.00
37634;BME280;32048;49.902;22.508;2023-01-27T14:27:21;98938.69;;;0.17;100.00
37634;BME280;32048;49.902;22.508;2023-01-27T14:40:26;98950.06;;;-0.01;100.00
37634;BME280;32048;49.902;22.508;2023-01-27T14:48:52;98950.97;;;-0.08;100.00
37634;BME280;32048;49.902;22.508;2023-01-27T14:51:46;98948.38;;;-0.11;100.00
37634;BME280;32048;49.902;22.508;2023-01-27T15:06:08;98936.38;;;-0.31;100.00
37634;BME280;32048;49.902;22.508;2023-01-27T15:23:19;98953.72;;;-0.45;100.00
37634;BME280;32048;49.902;22.508;2023-01-27T15:25:53;98941.66;;;-0.46;100.00
37634;BME280;32048;49.902;22.508;2023-01-27T15:28:27;98947.69;;;-0.47;100.00